Terminal Aerodrome Forecast
Issued by NWS Charleston, WV

Current Version | Previous Version | Graphics & Text | Print | Product List | Glossary On
Versions: 1 2 3 4 5 6 7 8 9 10 11 12 13 14 15 16 17 18 19 20 21 22 23 24 25 26 27
946
FTUS41 KRLX 211426 AAB
TAFEKN
TAF AMD
KEKN 211426Z 2114/2212 VRB03KT 6SM -SHRA BR FEW005 OVC025
      TEMPO 2114/2118 5SM -SHRA BR BKN005 OVC015
     FM211800 31004KT 4SM -SHRA BR OVC015
     FM220200 VRB03KT 3SM -RADZ OVC004=

USA.gov is the U.S. government's official web portal to all federal, state and local government web resources and services.